ポルトープランス の空港の天気 - METARとTAF

ポルトープランス国際空港 ( MTPP / PAP ) - ハイチ ポルトープランス
飛行場実況気象(Metar)
観測時間03/09 00:59 EST (03/09 05:59 UTC)
風向・風速南南東 5m/s
視程9000m
天気現象
-
気温24℃
湿度83%
気圧1018hPa
METARMTPP 090559Z AUTO 15009KT 9000 ////// 24/21 Q1018 A3007 NOSIG
過去の天気等 Google飛行場航空写真 Wunderground天気予報

過去48時間のMETAR

飛行場予報(TAF)
データがありません